Time;durP1;ratioP1;P1;durP2;ratioP2;P2;SDS_P1;SDS_P2;PMS_P1;PMS_P2;Temp;Humidity;BMP_temperature;BMP_pressure;BME280_temperature;BME280_humidity;BME280_pressure;Samples;Min_cycle;Max_cycle;Signal;HPM_P1;HPM_P2
2021/07/20 00:01:54;;;;;;;26.67;18.27;;;;;;;;;;4968974;28;20031;-83
2021/07/20 00:04:39;;;;;;;24.88;18.73;;;;;;;;;;4971140;28;20049;-83
2021/07/20 00:07:24;;;;;;;21.40;17.63;;;;;;;;;;4970752;28;20448;-83
2021/07/20 00:10:12;;;;;;;23.33;17.25;;;;;;;;;;4969195;28;20340;-82
2021/07/20 00:12:57;;;;;;;28.60;19.88;;;;;;;;;;4971325;28;20023;-81
2021/07/20 00:15:42;;;;;;;26.17;19.13;;;;;;;;;;4961440;28;20128;-81
2021/07/20 00:18:29;;;;;;;25.02;18.33;;;;;;;;;;4950924;29;20497;-81
2021/07/20 00:21:14;;;;;;;23.90;18.40;;;;;;;;;;4951448;29;20113;-81
2021/07/20 00:23:59;;;;;;;23.58;17.33;;;;;;;;;;4951109;29;20061;-82
2021/07/20 00:26:46;;;;;;;23.73;17.77;;;;;;;;;;4951284;29;20528;-83
2021/07/20 00:29:32;;;;;;;24.50;18.55;;;;;;;;;;4951265;29;20078;-84
2021/07/20 00:32:17;;;;;;;24.35;18.15;;;;;;;;;;4951258;29;20086;-83
2021/07/20 00:35:03;;;;;;;22.58;16.67;;;;;;;;;;4951203;29;20682;-81
2021/07/20 00:37:49;;;;;;;23.30;17.42;;;;;;;;;;4950890;29;20024;-82
2021/07/20 00:40:34;;;;;;;21.20;17.42;;;;;;;;;;4962935;28;20065;-83
2021/07/20 00:43:22;;;;;;;19.50;17.15;;;;;;;;;;4951262;29;20019;-81
2021/07/20 00:46:07;;;;;;;25.00;19.15;;;;;;;;;;4947678;29;20082;-82
2021/07/20 00:48:55;;;;;;;24.65;19.20;;;;;;;;;;4950905;29;20039;-82
2021/07/20 00:51:41;;;;;;;22.73;18.23;;;;;;;;;;4950725;29;20034;-82
2021/07/20 00:54:26;;;;;;;23.92;17.23;;;;;;;;;;4937757;29;20023;-82
2021/07/20 00:57:12;;;;;;;23.55;18.17;;;;;;;;;;4950914;29;20035;-83
2021/07/20 00:59:57;;;;;;;24.17;17.52;;;;;;;;;;4950231;29;20390;-82
2021/07/20 01:02:43;;;;;;;23.58;17.48;;;;;;;;;;4950812;29;20062;-82
2021/07/20 01:05:29;;;;;;;22.20;16.33;;;;;;;;;;4950228;28;20051;-82
2021/07/20 01:08:14;;;;;;;19.65;16.95;;;;;;;;;;4950164;29;20034;-83
2021/07/20 01:11:00;;;;;;;22.63;17.30;;;;;;;;;;4950931;29;20023;-82
2021/07/20 01:13:46;;;;;;;20.45;16.20;;;;;;;;;;4968382;28;20051;-82
2021/07/20 01:16:33;;;;;;;22.23;17.65;;;;;;;;;;4969534;28;20031;-82
2021/07/20 01:19:18;;;;;;;19.38;15.93;;;;;;;;;;4969297;28;20477;-82
2021/07/20 01:22:04;;;;;;;25.02;15.95;;;;;;;;;;4967363;28;20038;-82
2021/07/20 01:24:50;;;;;;;20.52;16.55;;;;;;;;;;4969796;28;20019;-82
2021/07/20 01:27:53;;;;;;;23.55;16.67;;;;;;;;;;4969679;28;20057;-82
2021/07/20 01:30:41;;;;;;;23.15;16.63;;;;;;;;;;4967741;28;20026;-82
2021/07/20 01:33:27;;;;;;;22.92;17.55;;;;;;;;;;4969235;28;20027;-82
2021/07/20 01:36:14;;;;;;;19.30;15.68;;;;;;;;;;4967685;28;20063;-83
2021/07/20 01:39:00;;;;;;;24.38;18.95;;;;;;;;;;4968987;28;20042;-82
2021/07/20 01:41:46;;;;;;;23.42;17.00;;;;;;;;;;4969175;28;20030;-82
2021/07/20 01:44:31;;;;;;;20.15;16.45;;;;;;;;;;4969197;28;20035;-82
2021/07/20 01:47:17;;;;;;;22.75;17.08;;;;;;;;;;4968842;28;20047;-82
2021/07/20 01:50:03;;;;;;;23.50;16.75;;;;;;;;;;4969770;28;20026;-82
2021/07/20 01:52:48;;;;;;;20.35;16.52;;;;;;;;;;4968899;28;20022;-83
2021/07/20 01:55:33;;;;;;;25.00;17.77;;;;;;;;;;4969121;28;20105;-83
2021/07/20 01:58:19;;;;;;;21.63;17.40;;;;;;;;;;4969239;28;20026;-82
2021/07/20 02:01:05;;;;;;;23.52;18.20;;;;;;;;;;4968456;28;20121;-83
2021/07/20 02:09:45;;;;;;;21.35;16.73;;;;;;;;;;4968833;28;20023;-82
2021/07/20 02:12:36;;;;;;;19.38;15.98;;;;;;;;;;4965277;28;20018;-82
2021/07/20 02:15:22;;;;;;;22.67;18.00;;;;;;;;;;4968822;28;20037;-82
2021/07/20 02:18:08;;;;;;;23.13;16.83;;;;;;;;;;4968627;28;20033;-82
2021/07/20 02:20:54;;;;;;;22.55;17.20;;;;;;;;;;4968582;28;20053;-82
2021/07/20 02:23:40;;;;;;;21.88;16.17;;;;;;;;;;4967152;28;20019;-82
2021/07/20 02:26:25;;;;;;;20.90;16.42;;;;;;;;;;4968909;28;20129;-82
2021/07/20 02:29:11;;;;;;;21.63;16.48;;;;;;;;;;4955707;28;20024;-81
2021/07/20 02:31:58;;;;;;;21.42;16.42;;;;;;;;;;4949397;29;20125;-82
2021/07/20 02:34:43;;;;;;;24.45;16.02;;;;;;;;;;4949350;29;20486;-82
2021/07/20 02:37:29;;;;;;;24.42;17.98;;;;;;;;;;4949351;29;20066;-82
2021/07/20 02:40:15;;;;;;;20.45;16.83;;;;;;;;;;4947954;29;20178;-83
2021/07/20 02:43:01;;;;;;;20.17;15.15;;;;;;;;;;4949093;29;20023;-82
2021/07/20 02:45:47;;;;;;;23.02;17.25;;;;;;;;;;4949201;29;20023;-81
2021/07/20 02:48:34;;;;;;;20.92;16.45;;;;;;;;;;4949122;29;20020;-83
2021/07/20 02:51:19;;;;;;;20.95;16.35;;;;;;;;;;4948769;29;20513;-82
2021/07/20 02:54:05;;;;;;;22.40;16.85;;;;;;;;;;4949490;29;20034;-82
2021/07/20 02:56:50;;;;;;;21.60;16.80;;;;;;;;;;4935841;29;20493;-81
2021/07/20 02:59:36;;;;;;;23.08;17.10;;;;;;;;;;4948849;29;20343;-81
2021/07/20 03:02:22;;;;;;;21.38;15.13;;;;;;;;;;4949384;29;20033;-82
2021/07/20 03:05:08;;;;;;;21.00;16.23;;;;;;;;;;4948566;29;20493;-82
2021/07/20 03:07:55;;;;;;;22.77;16.65;;;;;;;;;;4949112;29;20035;-82
2021/07/20 03:10:40;;;;;;;23.25;16.73;;;;;;;;;;4947483;29;20034;-82
2021/07/20 03:13:27;;;;;;;23.88;17.58;;;;;;;;;;4962877;28;20117;-82
2021/07/20 03:16:13;;;;;;;21.02;15.93;;;;;;;;;;4949040;29;20042;-82
2021/07/20 03:18:58;;;;;;;21.15;16.77;;;;;;;;;;4948550;29;20027;-82
2021/07/20 03:21:44;;;;;;;24.23;16.67;;;;;;;;;;4961799;28;20114;-83
2021/07/20 03:24:30;;;;;;;22.98;17.25;;;;;;;;;;4949096;29;20241;-82
2021/07/20 03:27:16;;;;;;;22.50;16.05;;;;;;;;;;4948597;29;20038;-83
2021/07/20 03:30:02;;;;;;;22.85;16.20;;;;;;;;;;4949153;28;20042;-82
2021/07/20 03:32:48;;;;;;;23.80;17.35;;;;;;;;;;4952319;29;20553;-82
2021/07/20 03:35:33;;;;;;;22.50;16.70;;;;;;;;;;4951934;29;20692;-81
2021/07/20 03:38:19;;;;;;;20.05;15.52;;;;;;;;;;4964006;28;20485;-81
2021/07/20 03:41:04;;;;;;;19.80;15.02;;;;;;;;;;4952033;29;20038;-81
2021/07/20 03:43:50;;;;;;;22.63;15.75;;;;;;;;;;4952062;29;20133;-82
2021/07/20 03:46:36;;;;;;;21.35;16.20;;;;;;;;;;4952447;29;20028;-81
2021/07/20 03:49:22;;;;;;;22.55;16.60;;;;;;;;;;4951941;29;20114;-81
2021/07/20 03:52:07;;;;;;;21.83;15.60;;;;;;;;;;4952308;29;20039;-81
2021/07/20 03:54:52;;;;;;;22.77;15.77;;;;;;;;;;4952088;29;20101;-80
2021/07/20 03:57:38;;;;;;;23.98;15.77;;;;;;;;;;4951797;29;20034;-83
2021/07/20 04:00:23;;;;;;;21.05;16.38;;;;;;;;;;4950059;29;20458;-82
2021/07/20 04:03:21;;;;;;;19.83;15.70;;;;;;;;;;4951972;29;20019;-82
2021/07/20 04:06:07;;;;;;;21.13;15.88;;;;;;;;;;4950223;29;20043;-81
2021/07/20 04:08:53;;;;;;;18.48;15.40;;;;;;;;;;4951293;29;20023;-81
2021/07/20 04:11:39;;;;;;;19.15;14.55;;;;;;;;;;4949574;28;20027;-81
2021/07/20 04:14:24;;;;;;;23.88;15.02;;;;;;;;;;4971029;28;20031;-81
2021/07/20 04:17:11;;;;;;;21.60;15.52;;;;;;;;;;4967507;28;20027;-82
2021/07/20 04:19:56;;;;;;;19.77;14.75;;;;;;;;;;4971168;28;20045;-82
2021/07/20 04:22:42;;;;;;;24.23;15.85;;;;;;;;;;4970344;28;20118;-80
2021/07/20 04:25:28;;;;;;;19.10;15.88;;;;;;;;;;4970729;28;20031;-83
2021/07/20 04:28:16;;;;;;;23.00;16.15;;;;;;;;;;4970791;28;20956;-82
2021/07/20 04:31:02;;;;;;;20.15;14.75;;;;;;;;;;4968670;28;20058;-84
2021/07/20 04:33:48;;;;;;;22.90;15.38;;;;;;;;;;4970796;28;20073;-82
2021/07/20 04:36:34;;;;;;;19.50;14.45;;;;;;;;;;4970266;28;20026;-83
2021/07/20 04:39:19;;;;;;;26.08;16.38;;;;;;;;;;4968972;28;20034;-82
2021/07/20 04:42:06;;;;;;;22.65;15.23;;;;;;;;;;4969248;28;20077;-83
2021/07/20 04:44:51;;;;;;;20.55;15.13;;;;;;;;;;4970128;28;20033;-82
2021/07/20 04:47:37;;;;;;;19.48;14.35;;;;;;;;;;4970364;28;20433;-81
2021/07/20 04:50:24;;;;;;;22.30;15.43;;;;;;;;;;4970372;28;20061;-82
2021/07/20 04:53:10;;;;;;;19.13;13.95;;;;;;;;;;4969964;28;20097;-81
2021/07/20 04:55:55;;;;;;;19.58;14.50;;;;;;;;;;4968794;28;20584;-82
2021/07/20 04:58:41;;;;;;;23.70;15.43;;;;;;;;;;4969959;28;20133;-82
2021/07/20 05:01:27;;;;;;;21.52;15.27;;;;;;;;;;4969678;28;20034;-82
2021/07/20 05:04:13;;;;;;;20.85;14.20;;;;;;;;;;4966697;28;20027;-82
2021/07/20 05:06:59;;;;;;;27.52;15.18;;;;;;;;;;4969150;28;20083;-82
2021/07/20 05:09:45;;;;;;;20.70;14.50;;;;;;;;;;4970060;28;20027;-82
2021/07/20 05:12:31;;;;;;;19.65;15.30;;;;;;;;;;4966459;28;20363;-84
2021/07/20 05:15:17;;;;;;;21.27;14.40;;;;;;;;;;4963576;28;20070;-82
2021/07/20 05:18:02;;;;;;;18.65;14.07;;;;;;;;;;4948994;29;20034;-82
2021/07/20 05:20:48;;;;;;;18.77;13.30;;;;;;;;;;4950208;29;20035;-83
2021/07/20 05:23:35;;;;;;;19.65;12.75;;;;;;;;;;4950381;29;20023;-81
2021/07/20 05:26:20;;;;;;;21.70;13.90;;;;;;;;;;4950364;29;20019;-81
2021/07/20 05:29:06;;;;;;;18.90;14.27;;;;;;;;;;4948310;29;20019;-82
2021/07/20 05:31:52;;;;;;;20.25;13.98;;;;;;;;;;4950902;29;20055;-81
2021/07/20 05:34:38;;;;;;;17.48;12.23;;;;;;;;;;4949959;29;20034;-82
2021/07/20 05:37:23;;;;;;;17.05;13.23;;;;;;;;;;4948363;29;20023;-82
2021/07/20 05:40:09;;;;;;;19.17;12.98;;;;;;;;;;4950272;29;20035;-81
2021/07/20 05:42:56;;;;;;;16.85;12.48;;;;;;;;;;4946401;29;20090;-83
2021/07/20 05:45:42;;;;;;;16.73;12.18;;;;;;;;;;4950216;29;20164;-83
2021/07/20 05:48:28;;;;;;;20.70;12.32;;;;;;;;;;4950182;29;20059;-83
2021/07/20 05:51:15;;;;;;;17.65;11.88;;;;;;;;;;4948417;29;20035;-83
2021/07/20 05:54:00;;;;;;;18.55;11.68;;;;;;;;;;4949998;29;20244;-83
2021/07/20 05:56:47;;;;;;;20.45;11.80;;;;;;;;;;4947725;29;20035;-83
2021/07/20 05:59:32;;;;;;;17.17;12.35;;;;;;;;;;4949638;29;20046;-83
2021/07/20 06:02:18;;;;;;;18.70;15.35;;;;;;;;;;4949301;29;20027;-83
2021/07/20 06:05:05;;;;;;;19.25;13.85;;;;;;;;;;4949408;28;20026;-83
2021/07/20 06:07:51;;;;;;;24.35;12.82;;;;;;;;;;4949896;29;20031;-82
2021/07/20 06:10:36;;;;;;;15.38;11.35;;;;;;;;;;4947881;29;20031;-82
2021/07/20 06:13:24;;;;;;;17.20;11.23;;;;;;;;;;4950858;28;20026;-82
2021/07/20 06:16:09;;;;;;;17.38;11.85;;;;;;;;;;4963000;28;20077;-82
2021/07/20 06:18:55;;;;;;;17.92;11.65;;;;;;;;;;4947720;29;20034;-84
2021/07/20 06:21:42;;;;;;;19.10;11.50;;;;;;;;;;4949508;29;20035;-83
2021/07/20 06:24:28;;;;;;;19.67;11.32;;;;;;;;;;4934243;29;20038;-83
2021/07/20 06:27:14;;;;;;;16.63;11.00;;;;;;;;;;4949466;29;20019;-83
2021/07/20 06:30:00;;;;;;;20.33;12.23;;;;;;;;;;4948012;29;20019;-83
2021/07/20 06:32:45;;;;;;;20.02;12.38;;;;;;;;;;4949000;29;20059;-84
2021/07/20 06:35:30;;;;;;;18.75;12.38;;;;;;;;;;4949392;29;20515;-83
2021/07/20 06:38:17;;;;;;;17.95;11.52;;;;;;;;;;4936122;29;20122;-83
2021/07/20 06:41:02;;;;;;;20.75;10.93;;;;;;;;;;4947443;29;20110;-83
2021/07/20 06:43:48;;;;;;;19.92;12.75;;;;;;;;;;4949750;29;20024;-83
2021/07/20 06:46:35;;;;;;;17.33;11.43;;;;;;;;;;4947552;29;20082;-83
2021/07/20 06:49:20;;;;;;;24.35;16.13;;;;;;;;;;4948922;29;20061;-83
2021/07/20 06:52:05;;;;;;;21.50;14.30;;;;;;;;;;4947664;29;20408;-84
2021/07/20 06:54:50;;;;;;;15.73;11.27;;;;;;;;;;4948833;29;20027;-83
2021/07/20 06:57:37;;;;;;;16.63;11.45;;;;;;;;;;4935891;29;20155;-84
2021/07/20 07:00:22;;;;;;;21.40;11.75;;;;;;;;;;4934444;29;20027;-84
2021/07/20 07:03:08;;;;;;;15.60;10.88;;;;;;;;;;4949165;28;20039;-84
2021/07/20 07:05:56;;;;;;;15.77;11.02;;;;;;;;;;4952746;29;20051;-83
2021/07/20 07:08:42;;;;;;;16.35;11.23;;;;;;;;;;4952788;29;20035;-84
2021/07/20 07:11:28;;;;;;;17.83;11.27;;;;;;;;;;4939520;29;20023;-83
2021/07/20 07:14:13;;;;;;;19.48;11.57;;;;;;;;;;4952748;29;20025;-83
2021/07/20 07:17:00;;;;;;;15.45;9.85;;;;;;;;;;4952590;29;20060;-83
2021/07/20 07:19:48;;;;;;;16.48;9.85;;;;;;;;;;4952822;29;20434;-84
2021/07/20 07:22:34;;;;;;;18.33;10.57;;;;;;;;;;4950552;29;20038;-84
2021/07/20 07:25:20;;;;;;;16.65;10.15;;;;;;;;;;4952683;29;20023;-84
2021/07/20 07:28:05;;;;;;;16.48;11.05;;;;;;;;;;4952485;29;20055;-84
2021/07/20 07:30:51;;;;;;;24.40;18.73;;;;;;;;;;4950560;29;20714;-82
2021/07/20 07:33:36;;;;;;;19.17;14.68;;;;;;;;;;4952552;29;20023;-83
2021/07/20 07:36:22;;;;;;;16.63;10.77;;;;;;;;;;4952533;29;20089;-84
2021/07/20 07:39:08;;;;;;;16.70;11.00;;;;;;;;;;4952245;29;20086;-83
2021/07/20 07:41:54;;;;;;;14.05;10.13;;;;;;;;;;4952338;29;20091;-83
2021/07/20 07:44:40;;;;;;;17.45;10.23;;;;;;;;;;4951540;29;20043;-83
2021/07/20 07:47:26;;;;;;;16.65;10.90;;;;;;;;;;4952384;29;20037;-84
2021/07/20 07:50:12;;;;;;;15.40;10.35;;;;;;;;;;4950677;29;20023;-84
2021/07/20 07:52:57;;;;;;;15.05;10.13;;;;;;;;;;4951594;29;20033;-84
2021/07/20 07:55:43;;;;;;;12.52;8.75;;;;;;;;;;4952441;29;20027;-84
2021/07/20 07:58:29;;;;;;;18.40;9.73;;;;;;;;;;4951755;29;20082;-84
2021/07/20 08:01:15;;;;;;;16.33;10.50;;;;;;;;;;4951666;29;20035;-84
2021/07/20 08:04:00;;;;;;;14.68;9.80;;;;;;;;;;4951807;29;20019;-84
2021/07/20 08:06:46;;;;;;;15.10;11.13;;;;;;;;;;4951286;29;20055;-84
2021/07/20 08:09:32;;;;;;;14.73;9.80;;;;;;;;;;4952042;29;20024;-84
2021/07/20 08:12:18;;;;;;;12.52;9.02;;;;;;;;;;4956887;28;20034;-84
2021/07/20 08:15:04;;;;;;;14.63;9.48;;;;;;;;;;4964658;28;20086;-84
2021/07/20 08:17:50;;;;;;;15.95;9.50;;;;;;;;;;4951925;29;20023;-84
2021/07/20 08:20:36;;;;;;;14.68;9.63;;;;;;;;;;4949780;29;20035;-84
2021/07/20 08:23:21;;;;;;;13.95;8.85;;;;;;;;;;4951258;29;20118;-84
2021/07/20 08:26:18;;;;;;;14.55;9.88;;;;;;;;;;4951730;29;20386;-83
2021/07/20 08:29:09;;;;;;;20.42;11.70;;;;;;;;;;4951530;29;20090;-84
2021/07/20 08:31:59;;;;;;;16.52;11.55;;;;;;;;;;4951240;29;20054;-84
2021/07/20 08:34:47;;;;;;;16.95;9.82;;;;;;;;;;4949820;29;20114;-84
2021/07/20 08:37:33;;;;;;;13.05;9.23;;;;;;;;;;4950981;29;20054;-84
2021/07/20 08:40:34;;;;;;;13.80;8.95;;;;;;;;;;4938102;29;20031;-84
2021/07/20 08:43:26;;;;;;;12.85;7.30;;;;;;;;;;4951004;29;20479;-85
2021/07/20 08:46:31;;;;;;;15.63;8.80;;;;;;;;;;4950862;29;20481;-84
2021/07/20 08:49:36;;;;;;;14.68;8.57;;;;;;;;;;4950866;29;20062;-84
2021/07/20 08:52:27;;;;;;;12.00;8.20;;;;;;;;;;4951001;29;20382;-84
2021/07/20 08:55:13;;;;;;;16.50;8.32;;;;;;;;;;4950909;29;20470;-84
2021/07/20 08:58:03;;;;;;;16.55;9.55;;;;;;;;;;4950860;29;20255;-84
2021/07/20 09:00:51;;;;;;;19.30;8.88;;;;;;;;;;4950702;29;20529;-84
2021/07/20 09:03:55;;;;;;;17.13;9.48;;;;;;;;;;4947358;29;20032;-84
2021/07/20 09:06:44;;;;;;;15.52;10.30;;;;;;;;;;4950128;29;20039;-84
2021/07/20 09:09:36;;;;;;;36.05;29.63;;;;;;;;;;4950740;29;20366;-83
2021/07/20 09:12:26;;;;;;;16.17;10.48;;;;;;;;;;4957892;28;20034;-84
2021/07/20 09:15:12;;;;;;;14.27;9.98;;;;;;;;;;4963968;28;20027;-83
2021/07/20 09:18:28;;;;;;;14.60;10.15;;;;;;;;;;4950474;29;20134;-84
2021/07/20 09:21:14;;;;;;;15.98;10.25;;;;;;;;;;4947407;29;20046;-84
2021/07/20 09:23:59;;;;;;;15.38;9.90;;;;;;;;;;4949965;29;20105;-84
2021/07/20 09:26:53;;;;;;;17.10;11.70;;;;;;;;;;4950283;28;20034;-85
2021/07/20 09:29:40;;;;;;;13.88;9.80;;;;;;;;;;4950306;29;20023;-84
2021/07/20 09:32:37;;;;;;;15.65;9.35;;;;;;;;;;4950496;29;20046;-84
2021/07/20 09:35:25;;;;;;;14.73;9.95;;;;;;;;;;4950791;29;20035;-84
2021/07/20 09:38:15;;;;;;;15.07;10.23;;;;;;;;;;4950380;29;20069;-84
2021/07/20 09:41:19;;;;;;;14.02;10.02;;;;;;;;;;4950598;29;20281;-83
2021/07/20 09:44:23;;;;;;;14.18;10.45;;;;;;;;;;4950704;29;20058;-83
2021/07/20 09:47:13;;;;;;;16.33;11.07;;;;;;;;;;4950405;29;20058;-85
2021/07/20 09:50:08;;;;;;;15.13;11.15;;;;;;;;;;4949997;29;20023;-84
2021/07/20 09:53:08;;;;;;;18.27;11.60;;;;;;;;;;4949829;29;20042;-84
2021/07/20 09:56:08;;;;;;;15.85;11.85;;;;;;;;;;4950062;29;20113;-84
2021/07/20 09:59:20;;;;;;;17.13;12.52;;;;;;;;;;4949931;29;20089;-84
2021/07/20 10:02:10;;;;;;;16.38;11.18;;;;;;;;;;4949885;29;20059;-84
2021/07/20 10:05:07;;;;;;;18.00;11.75;;;;;;;;;;4951902;29;20054;-84
2021/07/20 10:07:58;;;;;;;14.43;10.90;;;;;;;;;;4950303;29;20130;-84
2021/07/20 10:11:13;;;;;;;17.02;11.98;;;;;;;;;;4948130;29;20114;-84
2021/07/20 10:14:04;;;;;;;17.30;11.52;;;;;;;;;;4955184;28;20077;-84
2021/07/20 10:16:53;;;;;;;18.48;11.63;;;;;;;;;;4949744;29;20110;-84
2021/07/20 10:19:42;;;;;;;16.13;12.45;;;;;;;;;;4948351;29;20042;-84
2021/07/20 10:22:39;;;;;;;16.42;11.20;;;;;;;;;;4949347;29;20050;-85
2021/07/20 10:25:27;;;;;;;16.77;11.80;;;;;;;;;;4949353;29;20144;-84
2021/07/20 10:28:23;;;;;;;17.42;12.07;;;;;;;;;;4949655;29;20102;-84
2021/07/20 10:31:14;;;;;;;15.35;11.70;;;;;;;;;;4949297;29;20035;-84
2021/07/20 10:34:05;;;;;;;15.93;11.45;;;;;;;;;;4949717;29;20037;-85
2021/07/20 10:36:55;;;;;;;18.45;12.35;;;;;;;;;;4949530;29;20030;-85
2021/07/20 10:40:02;;;;;;;18.27;12.23;;;;;;;;;;4951152;28;20125;-84
2021/07/20 10:43:03;;;;;;;14.95;11.07;;;;;;;;;;4953337;29;20494;-84
2021/07/20 10:45:49;;;;;;;15.40;12.48;;;;;;;;;;4953492;29;20045;-85
2021/07/20 10:48:44;;;;;;;16.50;12.15;;;;;;;;;;4953482;29;20391;-86
2021/07/20 10:51:34;;;;;;;19.33;12.25;;;;;;;;;;4953310;29;20086;-85
2021/07/20 10:54:25;;;;;;;17.98;12.88;;;;;;;;;;4953507;29;20086;-85
2021/07/20 10:57:16;;;;;;;16.42;12.10;;;;;;;;;;4953122;29;20513;-85
2021/07/20 11:00:04;;;;;;;16.63;12.55;;;;;;;;;;4951670;29;20390;-85
2021/07/20 11:03:16;;;;;;;15.07;11.88;;;;;;;;;;4953059;29;20030;-85
2021/07/20 11:06:04;;;;;;;19.13;12.35;;;;;;;;;;4943936;29;20139;-84
2021/07/20 11:08:50;;;;;;;18.42;12.43;;;;;;;;;;4953079;29;20653;-85
2021/07/20 11:11:39;;;;;;;20.55;14.15;;;;;;;;;;4954264;28;20035;-84
2021/07/20 11:14:32;;;;;;;14.73;11.68;;;;;;;;;;4958680;28;20027;-85
2021/07/20 11:17:20;;;;;;;17.13;11.68;;;;;;;;;;4972568;28;20426;-84
2021/07/20 11:20:07;;;;;;;18.35;11.90;;;;;;;;;;4972156;28;20031;-84
2021/07/20 11:22:53;;;;;;;19.67;13.23;;;;;;;;;;4972228;28;20114;-84
2021/07/20 11:25:39;;;;;;;15.32;12.10;;;;;;;;;;4971834;28;20058;-84
2021/07/20 11:28:25;;;;;;;21.77;13.30;;;;;;;;;;4972318;28;20045;-84
2021/07/20 11:31:13;;;;;;;16.45;12.40;;;;;;;;;;4972256;28;20026;-84
2021/07/20 11:34:19;;;;;;;17.70;11.80;;;;;;;;;;4972200;28;20050;-85
2021/07/20 11:37:08;;;;;;;17.35;12.50;;;;;;;;;;4971925;28;20201;-84
2021/07/20 11:39:58;;;;;;;16.08;11.85;;;;;;;;;;4971655;28;20434;-84
2021/07/20 11:42:48;;;;;;;17.83;12.70;;;;;;;;;;4971609;28;20027;-83
2021/07/20 11:45:37;;;;;;;15.50;11.05;;;;;;;;;;4971469;28;20381;-84
2021/07/20 11:48:24;;;;;;;21.77;16.27;;;;;;;;;;4971931;28;20026;-84
2021/07/20 11:51:13;;;;;;;26.98;23.13;;;;;;;;;;4969434;28;20026;-84
2021/07/20 11:54:11;;;;;;;16.33;12.30;;;;;;;;;;4971229;28;20030;-84
2021/07/20 11:57:06;;;;;;;18.23;11.70;;;;;;;;;;4971733;28;20431;-86
2021/07/20 12:00:00;;;;;;;15.18;11.43;;;;;;;;;;4957865;28;20097;-86
2021/07/20 12:02:48;;;;;;;14.93;11.63;;;;;;;;;;4968206;28;20035;-84
2021/07/20 12:05:35;;;;;;;16.33;12.23;;;;;;;;;;4970799;28;20207;-85
2021/07/20 12:08:39;;;;;;;15.23;12.18;;;;;;;;;;4970075;28;20282;-84
2021/07/20 12:11:30;;;;;;;20.40;12.90;;;;;;;;;;4957945;28;20722;-85
2021/07/20 12:14:19;;;;;;;16.88;12.70;;;;;;;;;;4952026;29;20042;-85
2021/07/20 12:17:04;;;;;;;;;;;;;;;;;;4952443;29;20023;-85
2021/07/20 12:19:55;;;;;;;18.77;11.82;;;;;;;;;;4951862;29;19906;-85
2021/07/20 12:22:41;;;;;;;16.73;12.10;;;;;;;;;;4938465;29;20016;-85
2021/07/20 12:25:26;;;;;;;19.23;15.15;;;;;;;;;;4951705;29;20358;-86
2021/07/20 12:28:12;;;;;;;17.40;13.68;;;;;;;;;;4951811;29;20110;-85
2021/07/20 12:30:59;;;;;;;15.52;12.30;;;;;;;;;;4951827;29;20106;-84
2021/07/20 12:33:45;;;;;;;16.48;12.93;;;;;;;;;;4951196;29;20509;-85
2021/07/20 12:36:30;;;;;;;17.73;12.10;;;;;;;;;;4951632;29;20429;-84
2021/07/20 12:39:17;;;;;;;18.95;13.75;;;;;;;;;;4949794;29;20106;-85
2021/07/20 12:42:03;;;;;;;18.30;12.27;;;;;;;;;;4951829;29;20066;-84
2021/07/20 12:45:20;;;;;;;18.48;12.32;;;;;;;;;;4939146;29;20029;-84
2021/07/20 12:48:06;;;;;;;15.93;11.50;;;;;;;;;;4927210;29;20038;-84
2021/07/20 12:50:55;;;;;;;15.63;12.40;;;;;;;;;;4949297;29;20030;-83
2021/07/20 12:53:42;;;;;;;17.85;13.27;;;;;;;;;;4952917;29;20055;-83
2021/07/20 12:56:28;;;;;;;16.50;12.00;;;;;;;;;;4939739;29;20027;-83
2021/07/20 12:59:13;;;;;;;16.33;11.63;;;;;;;;;;4949170;29;20022;-83
2021/07/20 13:01:59;;;;;;;16.63;12.30;;;;;;;;;;4951659;28;20040;-83
2021/07/20 13:04:46;;;;;;;17.35;12.75;;;;;;;;;;4949874;29;20086;-84
2021/07/20 13:07:34;;;;;;;17.00;11.48;;;;;;;;;;4951153;29;20043;-85
2021/07/20 13:10:21;;;;;;;16.60;12.70;;;;;;;;;;4953498;29;20023;-84
2021/07/20 13:13:07;;;;;;;21.58;16.27;;;;;;;;;;4965674;28;20366;-84
2021/07/20 13:15:52;;;;;;;16.80;11.80;;;;;;;;;;4964049;28;20030;-85
2021/07/20 13:18:37;;;;;;;18.48;11.80;;;;;;;;;;4938821;29;20019;-85
2021/07/20 13:21:22;;;;;;;14.77;12.10;;;;;;;;;;4950780;29;20054;-83
2021/07/20 13:24:08;;;;;;;19.08;12.77;;;;;;;;;;4952063;29;20030;-85
2021/07/20 13:26:56;;;;;;;15.02;11.82;;;;;;;;;;4953134;29;20490;-84
2021/07/20 13:29:42;;;;;;;17.80;12.25;;;;;;;;;;4952726;29;20045;-85
2021/07/20 13:32:27;;;;;;;14.80;11.07;;;;;;;;;;4952788;29;20066;-85
2021/07/20 13:35:12;;;;;;;14.57;11.10;;;;;;;;;;4952266;29;20469;-85
2021/07/20 13:37:58;;;;;;;16.77;12.00;;;;;;;;;;4951759;29;20046;-85
2021/07/20 13:40:43;;;;;;;16.15;10.82;;;;;;;;;;4946138;29;20035;-85
2021/07/20 13:43:29;;;;;;;15.95;10.20;;;;;;;;;;4950725;29;20106;-84
2021/07/20 13:46:16;;;;;;;15.40;10.60;;;;;;;;;;4948899;29;20019;-84
2021/07/20 13:49:02;;;;;;;18.58;11.27;;;;;;;;;;4949389;29;20070;-85
2021/07/20 13:51:47;;;;;;;18.10;10.80;;;;;;;;;;4949948;29;20075;-84
2021/07/20 13:54:36;;;;;;;15.73;11.10;;;;;;;;;;4944443;29;20073;-84
2021/07/20 13:57:21;;;;;;;16.53;13.60;;;;;;;;;;4950259;29;20023;-85
2021/07/20 14:00:08;;;;;;;14.82;10.82;;;;;;;;;;4948071;29;20589;-85
2021/07/20 14:02:55;;;;;;;18.23;12.13;;;;;;;;;;4945459;29;20050;-85
2021/07/20 14:05:41;;;;;;;17.67;10.70;;;;;;;;;;4949117;28;20594;-83
2021/07/20 14:08:26;;;;;;;15.02;10.82;;;;;;;;;;4936609;29;20308;-83
2021/07/20 14:11:15;;;;;;;13.32;9.90;;;;;;;;;;4943166;29;20062;-82
2021/07/20 14:14:01;;;;;;;16.17;11.35;;;;;;;;;;4950002;28;20436;-84
2021/07/20 14:16:49;;;;;;;14.88;10.75;;;;;;;;;;4964039;28;20063;-84
2021/07/20 14:19:34;;;;;;;17.13;11.13;;;;;;;;;;4950871;29;20125;-83
2021/07/20 14:22:22;;;;;;;19.83;15.85;;;;;;;;;;4950294;29;20024;-84
2021/07/20 14:25:08;;;;;;;19.05;12.60;;;;;;;;;;4950670;29;20020;-83
2021/07/20 14:27:55;;;;;;;12.98;9.43;;;;;;;;;;4949777;29;20015;-83
2021/07/20 14:30:48;;;;;;;13.50;10.18;;;;;;;;;;4948255;29;20039;-83
2021/07/20 14:33:33;;;;;;;14.10;10.23;;;;;;;;;;4949624;29;20133;-83
2021/07/20 14:36:37;;;;;;;18.90;10.40;;;;;;;;;;4948456;29;20466;-83
2021/07/20 14:39:25;;;;;;;14.13;9.52;;;;;;;;;;4948406;29;20106;-83
2021/07/20 14:42:13;;;;;;;14.73;11.60;;;;;;;;;;4949632;29;20024;-83
2021/07/20 14:45:01;;;;;;;12.88;10.13;;;;;;;;;;4949661;29;20038;-83
2021/07/20 14:47:46;;;;;;;14.18;9.82;;;;;;;;;;4949758;29;20703;-82
2021/07/20 14:50:32;;;;;;;15.80;10.13;;;;;;;;;;4949906;29;20027;-82
2021/07/20 14:53:18;;;;;;;17.52;10.30;;;;;;;;;;4949834;29;20074;-83
2021/07/20 14:56:10;;;;;;;13.25;10.18;;;;;;;;;;4950682;29;20383;-83
2021/07/20 14:58:56;;;;;;;14.68;9.65;;;;;;;;;;4948251;29;20072;-82
2021/07/20 15:01:42;;;;;;;13.35;9.82;;;;;;;;;;4950000;29;20505;-83
2021/07/20 15:04:28;;;;;;;14.38;10.07;;;;;;;;;;4949608;29;20090;-83
2021/07/20 15:07:14;;;;;;;15.63;11.15;;;;;;;;;;4950268;29;20062;-83
2021/07/20 15:10:10;;;;;;;22.80;17.52;;;;;;;;;;4948659;29;20027;-84
2021/07/20 15:12:55;;;;;;;18.02;11.27;;;;;;;;;;4959986;28;20472;-84
2021/07/20 15:15:42;;;;;;;14.95;9.95;;;;;;;;;;4970287;28;20134;-84
2021/07/20 15:18:46;;;;;;;14.80;10.48;;;;;;;;;;4969192;28;20038;-83
2021/07/20 15:21:34;;;;;;;17.63;10.55;;;;;;;;;;4969573;28;20449;-84
2021/07/20 15:24:21;;;;;;;16.90;10.68;;;;;;;;;;4965692;28;20430;-83
2021/07/20 15:27:09;;;;;;;15.18;10.43;;;;;;;;;;4968891;28;20031;-83
2021/07/20 15:29:56;;;;;;;13.52;10.35;;;;;;;;;;4972103;28;20085;-83
2021/07/20 15:32:41;;;;;;;14.02;10.48;;;;;;;;;;4972697;28;20056;-83
2021/07/20 15:35:27;;;;;;;18.83;11.25;;;;;;;;;;4973117;28;20019;-83
2021/07/20 15:38:12;;;;;;;15.13;11.38;;;;;;;;;;4973303;28;20030;-84
2021/07/20 15:41:01;;;;;;;16.20;11.32;;;;;;;;;;4972926;28;20478;-85
2021/07/20 15:43:46;;;;;;;;;;;;;;;;;;4974717;28;20121;-84
2021/07/20 15:46:31;;;;;;;18.75;12.40;;;;;;;;;;4974376;28;20269;-84
2021/07/20 15:49:21;;;;;;;20.23;12.60;;;;;;;;;;4974451;28;20027;-84
2021/07/20 15:52:09;;;;;;;46.50;41.13;;;;;;;;;;4971706;28;20081;-84
2021/07/20 15:54:54;;;;;;;35.85;27.80;;;;;;;;;;4971035;28;20085;-83
2021/07/20 15:57:40;;;;;;;23.38;16.02;;;;;;;;;;4970634;28;20081;-85
2021/07/20 16:00:29;;;;;;;37.60;33.50;;;;;;;;;;4969543;28;20441;-84
2021/07/20 16:03:16;;;;;;;17.73;13.63;;;;;;;;;;4969851;28;20190;-82
2021/07/20 16:06:02;;;;;;;21.05;16.98;;;;;;;;;;4969738;28;20062;-84
2021/07/20 16:08:47;;;;;;;17.52;13.38;;;;;;;;;;4973418;28;20019;-83
2021/07/20 16:11:32;;;;;;;18.33;13.27;;;;;;;;;;4968882;28;20030;-84
2021/07/20 16:14:24;;;;;;;23.90;19.48;;;;;;;;;;4971931;28;20027;-83
2021/07/20 16:17:14;;;;;;;26.85;22.80;;;;;;;;;;4952505;29;20071;-83
2021/07/20 16:19:59;;;;;;;27.38;18.98;;;;;;;;;;4935041;29;20019;-83
2021/07/20 16:22:44;;;;;;;19.25;14.85;;;;;;;;;;4951979;29;20023;-83
2021/07/20 16:25:31;;;;;;;28.50;23.17;;;;;;;;;;4948691;29;20035;-82